createdAt,value
2024-05-09T00:03:12.909Z,7.04
2024-05-09T00:07:14.499Z,7.15
2024-05-09T00:11:16.163Z,7.39
2024-05-09T00:15:17.703Z,7.57
2024-05-09T00:19:19.497Z,7.47
2024-05-09T00:23:21.119Z,7.42
2024-05-09T00:27:22.632Z,7.44
2024-05-09T00:31:24.994Z,7.07
2024-05-09T00:35:26.645Z,6.84
2024-05-09T00:39:28.195Z,6.75
2024-05-09T00:43:29.695Z,6.84
2024-05-09T00:47:31.470Z,7.02
2024-05-09T00:51:33.151Z,7.08
2024-05-09T00:55:36.880Z,6.79
2024-05-09T00:59:38.698Z,6.42
2024-05-09T01:03:40.435Z,6.31
2024-05-09T01:07:43.304Z,6.33
2024-05-09T01:11:44.943Z,6.50
2024-05-09T01:15:46.532Z,6.64
2024-05-09T01:19:48.172Z,6.39
2024-05-09T01:23:49.824Z,6.48
2024-05-09T01:27:51.463Z,6.44
2024-05-09T01:31:53.217Z,6.38
2024-05-09T01:35:54.874Z,6.08
2024-05-09T01:39:56.410Z,5.45
2024-05-09T01:43:58.079Z,5.17
2024-05-09T01:47:59.970Z,5.11
2024-05-09T01:52:01.961Z,4.84
2024-05-09T01:56:03.940Z,4.83
2024-05-09T02:00:07.723Z,4.79
2024-05-09T02:04:09.539Z,4.69
2024-05-09T02:08:18.839Z,4.62
2024-05-09T02:12:21.522Z,4.52
2024-05-09T02:16:23.112Z,4.45
2024-05-09T02:20:33.464Z,4.45
2024-05-09T02:24:37.900Z,4.55
2024-05-09T02:28:39.411Z,4.62
2024-05-09T02:32:41.060Z,4.51
2024-05-09T02:36:42.664Z,4.37
2024-05-09T02:40:44.222Z,4.44
2024-05-09T02:44:45.727Z,4.54
2024-05-09T02:48:47.331Z,4.73
2024-05-09T02:52:49.083Z,4.82
2024-05-09T02:56:50.705Z,4.92
2024-05-09T03:00:52.314Z,4.73
2024-05-09T03:04:53.987Z,4.66
2024-05-09T03:08:55.762Z,4.68
2024-05-09T03:12:57.264Z,4.70
2024-05-09T03:16:58.827Z,4.54
2024-05-09T03:21:00.605Z,4.54
2024-05-09T03:25:02.231Z,4.61
2024-05-09T03:29:03.832Z,4.31
2024-05-09T03:33:05.793Z,4.21
2024-05-09T03:37:07.636Z,4.35
2024-05-09T03:41:09.424Z,4.58
2024-05-09T03:45:10.946Z,4.73
2024-05-09T03:49:12.628Z,4.82
2024-05-09T03:53:14.700Z,4.81
2024-05-09T03:57:16.394Z,4.86
2024-05-09T04:01:17.928Z,4.93
2024-05-09T04:05:19.603Z,5.01
2024-05-09T04:09:21.132Z,5.10
2024-05-09T04:13:22.788Z,5.17
2024-05-09T04:17:24.376Z,5.23
2024-05-09T04:21:26.045Z,5.36
2024-05-09T04:25:27.520Z,5.54
2024-05-09T04:29:29.203Z,5.69
2024-05-09T04:33:30.974Z,5.93
2024-05-09T04:37:32.540Z,6.07
2024-05-09T04:41:34.145Z,6.20
2024-05-09T04:45:35.990Z,6.47
2024-05-09T04:49:37.669Z,6.66
2024-05-09T04:53:39.457Z,6.80
2024-05-09T04:57:41.046Z,6.93
2024-05-09T05:01:42.563Z,7.10
2024-05-09T05:05:45.460Z,7.19
2024-05-09T05:09:47.607Z,7.29
2024-05-09T05:13:49.127Z,7.44
2024-05-09T05:17:51.259Z,7.55
2024-05-09T05:21:52.868Z,7.55
2024-05-09T05:25:55.095Z,7.71
2024-05-09T05:29:57.244Z,7.83
2024-05-09T05:33:58.783Z,8.03
2024-05-09T05:38:00.485Z,8.37
2024-05-09T05:42:02.209Z,8.48
2024-05-09T05:46:03.786Z,8.71
2024-05-09T05:50:11.739Z,8.71
2024-05-09T05:54:19.346Z,8.87
2024-05-09T05:58:20.888Z,9.16
2024-05-09T06:02:22.583Z,9.49
2024-05-09T06:06:24.141Z,10.15
2024-05-09T06:10:30.275Z,10.44
2024-05-09T06:14:39.840Z,10.85
2024-05-09T06:18:41.548Z,11.21
2024-05-09T06:22:43.112Z,11.44
2024-05-09T06:26:44.643Z,11.59
2024-05-09T06:30:46.263Z,11.71
2024-05-09T06:34:48.276Z,11.81
2024-05-09T06:38:49.922Z,12.12
2024-05-09T06:42:51.418Z,11.90
2024-05-09T06:46:54.069Z,12.13
2024-05-09T06:50:56.541Z,12.30
2024-05-09T06:54:58.191Z,12.31
2024-05-09T06:58:59.747Z,12.44
2024-05-09T07:03:05.463Z,12.19
2024-05-09T07:07:07.651Z,11.81
2024-05-09T07:11:09.311Z,11.56
2024-05-09T07:15:10.870Z,11.63
2024-05-09T07:19:12.519Z,11.81
2024-05-09T07:23:14.694Z,12.04
2024-05-09T07:27:16.278Z,12.26
2024-05-09T07:31:17.807Z,12.53
2024-05-09T07:35:19.436Z,12.49
2024-05-09T07:39:20.925Z,12.68
2024-05-09T07:43:22.504Z,12.79
2024-05-09T07:48:56.500Z,13.09
2024-05-09T07:53:17.355Z,13.00
2024-05-09T07:56:08.382Z,13.13
2024-05-09T08:00:14.365Z,13.17
2024-05-09T08:04:16.080Z,13.22
2024-05-09T08:08:17.872Z,13.42
2024-05-09T08:12:19.368Z,13.61
2024-05-09T08:16:20.995Z,13.92
2024-05-09T08:20:30.549Z,13.97
2024-05-09T08:24:35.108Z,14.10
2024-05-09T08:28:36.647Z,14.34
2024-05-09T08:32:40.014Z,14.64
2024-05-09T08:36:41.593Z,14.80
2024-05-09T08:40:43.330Z,14.30
2024-05-09T08:44:48.244Z,14.55
2024-05-09T08:48:51.477Z,14.46
2024-05-09T08:52:53.091Z,14.16
2024-05-09T08:56:54.768Z,14.25
2024-05-09T09:00:58.114Z,14.35
2024-05-09T09:05:13.606Z,14.16
2024-05-09T09:09:15.557Z,14.46
2024-05-09T09:13:17.152Z,14.71
2024-05-09T09:17:18.836Z,14.76
2024-05-09T09:21:20.352Z,14.61
2024-05-09T09:25:22.516Z,15.27
2024-05-09T09:29:25.231Z,15.63
2024-05-09T09:33:26.836Z,15.35
2024-05-09T09:37:29.326Z,16.07
2024-05-09T09:41:31.502Z,16.50
2024-05-09T09:45:35.178Z,16.12
2024-05-09T09:49:37.698Z,15.57
2024-05-09T09:53:39.607Z,15.35
2024-05-09T09:57:43.758Z,15.12
2024-05-09T10:01:46.323Z,15.63
2024-05-09T10:05:49.154Z,16.01
2024-05-09T10:09:55.301Z,16.32
2024-05-09T10:13:57.547Z,16.60
2024-05-09T10:18:05.731Z,16.31
2024-05-09T10:22:07.754Z,16.07
2024-05-09T10:26:09.503Z,16.07
2024-05-09T10:30:29.586Z,16.28
2024-05-09T10:34:37.299Z,16.41
2024-05-09T10:38:40.764Z,16.25
2024-05-09T10:42:42.323Z,16.22
2024-05-09T10:46:46.860Z,15.79
2024-05-09T10:50:48.407Z,15.98
2024-05-09T10:54:53.409Z,16.16
2024-05-09T10:58:54.892Z,16.49
2024-05-09T11:02:56.507Z,17.13
2024-05-09T11:07:01.023Z,16.81
2024-05-09T11:11:04.738Z,16.34
2024-05-09T11:15:06.746Z,16.31
2024-05-09T11:19:14.550Z,16.12
2024-05-09T11:23:18.013Z,15.99
2024-05-09T11:27:20.804Z,16.46
2024-05-09T11:31:22.564Z,17.00
2024-05-09T11:35:24.150Z,17.12
2024-05-09T11:39:26.335Z,16.78
2024-05-09T11:43:28.052Z,17.44
2024-05-09T11:47:29.878Z,17.49
2024-05-09T11:51:31.449Z,17.29
2024-05-09T11:55:33.140Z,16.59
2024-05-09T11:59:34.791Z,17.41
2024-05-09T12:03:36.391Z,17.92
2024-05-09T12:07:38.121Z,18.75
2024-05-09T12:11:39.712Z,19.68
2024-05-09T12:15:41.476Z,19.00
2024-05-09T12:19:43.066Z,19.60
2024-05-09T12:23:44.698Z,19.28
2024-05-09T12:27:46.328Z,19.81
2024-05-09T12:31:47.979Z,18.34
2024-05-09T12:35:51.207Z,19.76
2024-05-09T12:39:52.998Z,19.74
2024-05-09T12:43:54.657Z,20.26
2024-05-09T12:47:56.356Z,21.04
2024-05-09T12:51:58.079Z,21.60
2024-05-09T12:56:02.379Z,19.69
2024-05-09T13:00:09.355Z,20.89
2024-05-09T13:04:13.450Z,20.28
2024-05-09T13:08:15.490Z,24.06
2024-05-09T13:12:16.997Z,23.13
2024-05-09T13:16:18.730Z,20.86
2024-05-09T13:20:29.145Z,20.80
2024-05-09T13:24:34.524Z,23.92
2024-05-09T13:28:36.088Z,22.55
2024-05-09T13:32:37.806Z,26.43
2024-05-09T13:36:39.455Z,27.88
2024-05-09T13:40:41.103Z,29.43
2024-05-09T13:44:42.778Z,25.17
2024-05-09T13:48:44.495Z,24.24
2024-05-09T13:52:46.033Z,22.76
2024-05-09T13:56:47.571Z,24.24
2024-05-09T14:00:49.642Z,23.10
2024-05-09T14:04:51.514Z,22.31
2024-05-09T14:08:53.278Z,26.05
2024-05-09T14:12:54.887Z,21.70
2024-05-09T14:16:57.466Z,21.59
2024-05-09T14:20:59.128Z,20.66
2024-05-09T14:25:00.993Z,18.62
2024-05-09T14:29:03.448Z,21.66
2024-05-09T14:33:06.771Z,19.57
2024-05-09T14:37:09.371Z,24.39
2024-05-09T14:41:11.069Z,22.98
2024-05-09T14:45:12.694Z,22.21
2024-05-09T14:49:14.414Z,24.19
2024-05-09T14:53:16.065Z,22.71
2024-05-09T14:57:17.613Z,24.47
2024-05-09T15:01:19.274Z,21.97
2024-05-09T15:05:20.922Z,23.10
2024-05-09T15:09:22.624Z,23.30
2024-05-09T15:13:24.652Z,23.26
2024-05-09T15:17:26.654Z,23.41
2024-05-09T15:21:28.398Z,22.39
2024-05-09T15:25:30.023Z,21.05
2024-05-09T15:29:31.738Z,20.93
2024-05-09T15:33:33.441Z,22.15
2024-05-09T15:37:35.262Z,21.00
2024-05-09T15:41:36.778Z,19.58
2024-05-09T15:45:39.273Z,20.40
2024-05-09T15:49:41.254Z,20.12
2024-05-09T15:53:42.862Z,20.50
2024-05-09T15:57:45.031Z,20.26
2024-05-09T16:01:46.775Z,19.31
2024-05-09T16:05:48.791Z,19.49
2024-05-09T16:09:50.664Z,19.54
2024-05-09T16:13:52.251Z,19.63
2024-05-09T16:17:53.979Z,19.34
2024-05-09T16:21:55.599Z,18.82
2024-05-09T16:25:57.354Z,19.36
2024-05-09T16:29:58.883Z,19.70
2024-05-09T16:34:00.566Z,19.25
2024-05-09T16:38:03.304Z,18.96
2024-05-09T16:42:05.199Z,18.99
2024-05-09T16:46:07.269Z,18.71
2024-05-09T16:50:10.794Z,18.70
2024-05-09T16:54:14.328Z,18.21
2024-05-09T16:58:16.015Z,17.92
2024-05-09T17:02:17.996Z,18.22
2024-05-09T17:06:19.786Z,17.95
2024-05-09T17:10:29.134Z,17.97
2024-05-09T17:14:33.866Z,17.69
2024-05-09T17:18:35.904Z,17.36
2024-05-09T17:22:37.547Z,17.25
2024-05-09T17:26:39.106Z,17.30
2024-05-09T17:30:42.067Z,17.18
2024-05-09T17:34:44.372Z,17.16
2024-05-09T17:38:46.101Z,17.01
2024-05-09T17:42:47.643Z,16.82
2024-05-09T17:46:49.219Z,16.67
2024-05-09T17:50:50.759Z,16.54
2024-05-09T17:54:52.324Z,16.45
2024-05-09T17:58:53.990Z,16.37
2024-05-09T18:02:55.558Z,16.18
2024-05-09T18:06:57.170Z,15.93
2024-05-09T18:10:58.821Z,15.60
2024-05-09T18:15:00.524Z,15.29
2024-05-09T18:19:02.165Z,15.05
2024-05-09T18:23:03.907Z,14.86
2024-05-09T18:27:05.928Z,14.63
2024-05-09T18:31:07.493Z,14.41
2024-05-09T18:35:09.192Z,14.13
2024-05-09T18:39:11.138Z,13.82
2024-05-09T18:43:12.691Z,13.69
2024-05-09T18:47:16.746Z,13.61
2024-05-09T18:51:20.840Z,13.50
2024-05-09T18:55:22.452Z,13.40
2024-05-09T18:59:24.065Z,13.29
2024-05-09T19:03:25.963Z,13.19
2024-05-09T19:07:28.027Z,12.95
2024-05-09T19:11:30.821Z,12.86
2024-05-09T19:15:32.431Z,12.60
2024-05-09T19:19:34.401Z,12.55
2024-05-09T19:23:38.395Z,12.62
2024-05-09T19:27:44.533Z,12.57
2024-05-09T19:31:46.046Z,12.53
2024-05-09T19:35:47.692Z,12.53
2024-05-09T19:39:49.203Z,12.37
2024-05-09T19:43:50.774Z,12.34
2024-05-09T19:47:52.601Z,12.36
2024-05-09T19:51:54.333Z,12.28
2024-05-09T19:55:55.922Z,12.18
2024-05-09T19:59:57.497Z,12.08
2024-05-09T20:03:59.345Z,11.92
2024-05-09T20:08:01.082Z,11.87
2024-05-09T20:12:02.657Z,11.82
2024-05-09T20:16:04.622Z,11.72
2024-05-09T20:20:11.349Z,11.70
2024-05-09T20:24:18.176Z,11.72
2024-05-09T20:28:19.774Z,11.63
2024-05-09T20:32:21.456Z,11.54
2024-05-09T20:36:23.166Z,11.53
2024-05-09T20:40:29.321Z,11.44
2024-05-09T20:44:35.147Z,11.20
2024-05-09T20:48:36.912Z,10.98
2024-05-09T20:52:38.514Z,10.97
2024-05-09T20:56:40.031Z,10.95
2024-05-09T21:00:44.492Z,10.66
2024-05-09T21:04:47.665Z,10.02
2024-05-09T21:08:49.299Z,9.76
2024-05-09T21:12:51.303Z,9.54
2024-05-09T21:16:52.945Z,9.44
2024-05-09T21:20:54.510Z,9.33
2024-05-09T21:24:56.087Z,9.24
2024-05-09T21:28:57.689Z,9.18
2024-05-09T21:32:59.676Z,9.16
2024-05-09T21:37:01.416Z,9.21
2024-05-09T21:41:03.032Z,9.64
2024-05-09T21:45:04.887Z,9.91
2024-05-09T21:49:06.562Z,9.99
2024-05-09T21:53:08.359Z,10.40
2024-05-09T21:57:10.209Z,10.57
2024-05-09T22:01:11.876Z,10.90
2024-05-09T22:05:13.898Z,10.75
2024-05-09T22:09:15.539Z,10.48
2024-05-09T22:13:17.288Z,10.08
2024-05-09T22:17:18.937Z,9.67
2024-05-09T22:21:20.631Z,9.46
2024-05-09T22:25:22.876Z,9.63
2024-05-09T22:29:24.369Z,9.81
2024-05-09T22:33:25.959Z,9.85
2024-05-09T22:37:27.528Z,9.95
2024-05-09T22:41:29.013Z,9.94
2024-05-09T22:45:30.580Z,9.95
2024-05-09T22:49:32.120Z,9.97
2024-05-09T22:53:33.774Z,9.95
2024-05-09T22:57:35.414Z,9.89
2024-05-09T23:01:37.066Z,9.84
2024-05-09T23:05:38.754Z,9.77
2024-05-09T23:09:40.441Z,9.59
2024-05-09T23:13:42.017Z,9.66
2024-05-09T23:17:43.698Z,9.59
2024-05-09T23:21:45.291Z,9.41
2024-05-09T23:25:49.385Z,9.32
2024-05-09T23:29:51.396Z,9.23
2024-05-09T23:33:53.812Z,9.32
2024-05-09T23:37:55.986Z,9.21
2024-05-09T23:41:57.835Z,9.06
2024-05-09T23:45:59.643Z,8.72
2024-05-09T23:50:03.702Z,8.59
2024-05-09T23:54:05.759Z,8.95
2024-05-09T23:58:07.868Z,8.99
